Time;durP1;ratioP1;P1;durP2;ratioP2;P2;SDS_P1;SDS_P2;PMS_P1;PMS_P2;Temp;Humidity;BMP_temperature;BMP_pressure;BME280_temperature;BME280_humidity;BME280_pressure;Samples;Min_cycle;Max_cycle;Signal;HPM_P1;HPM_P2
2022/08/26 00:01:20;;;;;;;6.50;2.80;;;26.50;49.70;;;;;;4991568;28;21057;-73
2022/08/26 00:03:46;;;;;;;7.27;3.40;;;26.50;49.60;;;;;;4991791;28;20562;-73
2022/08/26 00:06:13;;;;;;;3.80;3.40;;;26.40;49.60;;;;;;4991690;28;20562;-72
2022/08/26 00:08:40;;;;;;;5.60;3.40;;;26.30;49.60;;;;;;4991654;28;20589;-73
2022/08/26 00:11:06;;;;;;;4.90;3.10;;;26.20;49.70;;;;;;4991643;28;20570;-72
2022/08/26 00:13:33;;;;;;;4.70;3.17;;;26.10;49.80;;;;;;4974130;28;20578;-72
2022/08/26 00:16:00;;;;;;;6.20;5.00;;;26.10;50.10;;;;;;4991625;28;20601;-72
2022/08/26 00:18:26;;;;;;;7.53;6.20;;;26.00;50.70;;;;;;4991367;28;20926;-72
2022/08/26 00:20:52;;;;;;;8.20;6.03;;;25.90;51.30;;;;;;4991279;28;20614;-72
2022/08/26 00:23:19;;;;;;;8.90;7.73;;;25.90;51.80;;;;;;4973990;28;20591;-73
2022/08/26 00:25:45;;;;;;;8.30;7.50;;;25.70;52.30;;;;;;4992023;28;20572;-72
2022/08/26 00:28:11;;;;;;;9.10;8.30;;;25.70;53.00;;;;;;4977807;28;20649;-72
2022/08/26 00:30:37;;;;;;;8.80;7.97;;;25.60;53.20;;;;;;4995347;28;20581;-73
2022/08/26 00:33:04;;;;;;;9.47;8.57;;;25.50;53.60;;;;;;4977895;28;20574;-73
2022/08/26 00:35:31;;;;;;;13.07;11.77;;;25.50;54.20;;;;;;4995347;28;20573;-73
2022/08/26 00:37:58;;;;;;;13.70;12.50;;;25.40;54.90;;;;;;4977684;28;20942;-73
2022/08/26 00:40:28;;;;;;;15.07;13.87;;;25.30;55.50;;;;;;4995011;28;21023;-71
2022/08/26 00:42:57;;;;;;;15.57;14.27;;;25.30;56.30;;;;;;4977620;28;20578;-73
2022/08/26 00:45:23;;;;;;;16.17;14.70;;;25.20;56.80;;;;;;4995154;28;20968;-72
2022/08/26 00:47:54;;;;;;;18.77;17.10;;;25.20;57.40;;;;;;4977580;28;20570;-73
2022/08/26 00:50:29;;;;;;;22.23;20.27;;;25.10;58.30;;;;;;4977257;28;20593;-73
2022/08/26 00:52:58;;;;;;;22.90;20.97;;;25.10;59.30;;;;;;4977367;28;20584;-73
2022/08/26 00:55:37;;;;;;;22.40;20.50;;;25.00;59.60;;;;;;4995167;28;20997;-73
2022/08/26 00:58:04;;;;;;;24.77;22.57;;;25.00;62.50;;;;;;4977680;28;20588;-74
2022/08/26 01:00:30;;;;;;;22.57;20.67;;;24.90;61.60;;;;;;4994751;28;20654;-73
2022/08/26 01:02:59;;;;;;;25.40;22.73;;;24.90;62.60;;;;;;4995046;28;20574;-73
2022/08/26 01:05:24;;;;;;;25.13;22.93;;;24.80;64.40;;;;;;4994697;28;20662;-72
2022/08/26 01:07:50;;;;;;;28.67;25.90;;;24.80;64.80;;;;;;4993391;28;20570;-73
2022/08/26 01:10:20;;;;;;;27.13;24.87;;;24.80;66.50;;;;;;4976925;28;20195;-72
2022/08/26 01:12:56;;;;;;;29.80;27.17;;;24.70;67.70;;;;;;4977088;28;20573;-73
2022/08/26 01:15:28;;;;;;;27.30;25.03;;;24.70;69.50;;;;;;4977257;28;20573;-72
2022/08/26 01:17:54;;;;;;;29.03;26.40;;;24.70;70.30;;;;;;4994571;28;20593;-72
2022/08/26 01:20:49;;;;;;;30.73;28.00;;;24.60;70.80;;;;;;4994332;28;20628;-73
2022/08/26 01:23:15;;;;;;;32.03;29.23;;;24.60;72.70;;;;;;4994397;28;20171;-72
2022/08/26 01:25:45;;;;;;;29.53;27.07;;;24.50;72.40;;;;;;4976897;28;20570;-73
2022/08/26 01:28:25;;;;;;;31.90;29.10;;;24.50;74.20;;;;;;4976832;28;20632;-72
2022/08/26 01:30:53;;;;;;;31.97;28.73;;;24.50;75.80;;;;;;4994232;28;20592;-72
2022/08/26 01:33:25;;;;;;;34.70;31.50;;;24.40;76.50;;;;;;4994200;28;20574;-72
2022/08/26 01:35:52;;;;;;;31.37;28.80;;;24.40;78.40;;;;;;4976816;28;20940;-72
2022/08/26 01:38:19;;;;;;;33.33;30.33;;;24.40;79.30;;;;;;4975709;28;20574;-72
2022/08/26 01:40:45;;;;;;;32.70;29.80;;;24.30;80.30;;;;;;4994308;28;21068;-79
2022/08/26 01:43:18;;;;;;;34.63;31.67;;;24.30;81.30;;;;;;4976629;28;20574;-79
2022/08/26 01:45:46;;;;;;;28.93;26.40;;;24.30;83.20;;;;;;4994196;28;20602;-79
2022/08/26 01:48:16;;;;;;;33.57;30.40;;;24.20;83.50;;;;;;4993856;28;20657;-78
2022/08/26 01:50:44;;;;;;;34.47;31.10;;;24.20;85.60;;;;;;4993664;28;20563;-76
2022/08/26 01:53:12;;;;;;;32.63;29.83;;;24.20;86.40;;;;;;4993943;28;20566;-78
2022/08/26 01:55:42;;;;;;;37.87;34.47;;;24.20;87.80;;;;;;4993842;28;20654;-79
2022/08/26 01:58:16;;;;;;;34.03;31.03;;;24.10;89.60;;;;;;4944226;28;20566;-79
2022/08/26 02:00:43;;;;;;;32.50;29.40;;;24.10;90.40;;;;;;4976319;28;20624;-78
2022/08/26 02:03:20;;;;;;;36.60;33.37;;;24.10;90.70;;;;;;4975946;28;21134;-78
2022/08/26 02:05:58;;;;;;;33.07;30.27;;;24.10;91.40;;;;;;4993411;28;20574;-78
2022/08/26 02:08:37;;;;;;;36.53;33.40;;;24.00;92.30;;;;;;4993606;28;20605;-78
2022/08/26 02:11:04;;;;;;;35.90;32.50;;;24.00;92.80;;;;;;4993256;28;20674;-78
2022/08/26 02:13:32;;;;;;;34.43;31.40;;;24.00;92.90;;;;;;4993445;28;20685;-78
2022/08/26 02:15:59;;;;;;;34.70;31.37;;;24.00;93.50;;;;;;4959934;28;21116;-78
2022/08/26 02:18:29;;;;;;;30.90;28.00;;;23.90;94.00;;;;;;4975744;28;20641;-78
2022/08/26 02:20:55;;;;;;;31.87;28.87;;;23.90;94.40;;;;;;4993096;28;20625;-78
2022/08/26 02:23:22;;;;;;;34.47;31.60;;;23.90;94.80;;;;;;4976262;28;20893;-78
2022/08/26 02:26:03;;;;;;;34.20;31.30;;;23.80;95.40;;;;;;4993845;28;20649;-78
2022/08/26 02:28:34;;;;;;;32.27;29.53;;;23.80;96.00;;;;;;4994278;28;21341;-78
2022/08/26 02:31:00;;;;;;;32.17;29.10;;;23.80;96.30;;;;;;4993637;28;20574;-78
2022/08/26 02:33:28;;;;;;;33.30;30.23;;;23.80;96.40;;;;;;4992386;28;20725;-78
2022/08/26 02:35:54;;;;;;;30.43;27.63;;;23.70;96.90;;;;;;4977322;28;20616;-78
2022/08/26 02:38:20;;;;;;;28.90;26.20;;;23.70;97.10;;;;;;4993269;28;20669;-77
2022/08/26 02:40:46;;;;;;;30.53;27.80;;;23.70;97.40;;;;;;4975526;28;20214;-78
2022/08/26 02:43:12;;;;;;;27.87;25.47;;;23.70;97.70;;;;;;4975545;28;20677;-78
2022/08/26 02:45:40;;;;;;;29.13;26.43;;;23.70;98.00;;;;;;4992992;28;20693;-78
2022/08/26 02:48:12;;;;;;;29.33;26.70;;;23.60;98.40;;;;;;4993105;28;20570;-78
2022/08/26 02:50:38;;;;;;;27.57;25.17;;;23.60;99.00;;;;;;4992461;28;20578;-78
2022/08/26 02:53:05;;;;;;;30.10;27.47;;;23.60;99.10;;;;;;4992543;28;20578;-77
2022/08/26 02:55:31;;;;;;;31.00;28.30;;;23.50;99.50;;;;;;4992634;28;20586;-78
2022/08/26 02:57:58;;;;;;;30.67;27.70;;;23.50;99.80;;;;;;4992711;28;20585;-77
2022/08/26 03:00:23;;;;;;;30.53;27.83;;;23.50;99.90;;;;;;4992154;28;20598;-78
2022/08/26 03:02:49;;;;;;;29.47;26.50;;;23.40;99.90;;;;;;4975055;28;20566;-77
2022/08/26 03:05:18;;;;;;;27.83;25.43;;;23.40;99.90;;;;;;4992565;28;20281;-77
2022/08/26 03:07:45;;;;;;;27.60;25.20;;;23.40;99.90;;;;;;4975154;28;20589;-77
2022/08/26 03:10:12;;;;;;;29.47;26.57;;;23.40;99.90;;;;;;4992303;28;20602;-77
2022/08/26 03:12:39;;;;;;;30.67;27.77;;;23.40;99.90;;;;;;4974993;28;20641;-77
2022/08/26 03:15:06;;;;;;;29.17;26.50;;;23.40;99.90;;;;;;4975105;28;20605;-77
2022/08/26 03:17:32;;;;;;;26.93;24.43;;;23.40;99.90;;;;;;4992468;28;20581;-78
2022/08/26 03:19:58;;;;;;;26.77;24.63;;;23.40;99.90;;;;;;4992022;28;20606;-77
2022/08/26 03:22:24;;;;;;;27.00;24.53;;;23.40;99.90;;;;;;4992240;28;20688;-78
2022/08/26 03:24:50;;;;;;;28.40;25.80;;;23.50;99.90;;;;;;4992303;28;20260;-78
2022/08/26 03:27:16;;;;;;;32.27;29.00;;;23.50;99.90;;;;;;4992099;28;20587;-78
2022/08/26 03:32:26;;;;;;;26.63;24.23;;;23.50;99.90;;;;;;4958467;28;20231;-77
2022/08/26 03:34:52;;;;;;;27.43;25.07;;;23.50;99.90;;;;;;4974389;28;20582;-79
2022/08/26 03:37:19;;;;;;;28.63;26.20;;;23.60;99.90;;;;;;4992328;28;20171;-77
2022/08/26 03:39:45;;;;;;;27.10;24.70;;;23.60;99.90;;;;;;4974708;28;20214;-77
2022/08/26 03:42:11;;;;;;;29.90;27.00;;;23.70;99.90;;;;;;4991826;28;20624;-77
2022/08/26 03:44:37;;;;;;;28.80;26.17;;;23.70;99.90;;;;;;4974638;28;20678;-77
2022/08/26 03:47:05;;;;;;;30.50;27.47;;;23.70;99.90;;;;;;4992082;28;20795;-78
2022/08/26 03:49:33;;;;;;;28.57;25.87;;;23.70;99.90;;;;;;4950865;23;20762;-78
2022/08/26 03:51:59;;;;;;;30.47;27.50;;;23.70;99.90;;;;;;4953138;29;20567;-78
2022/08/26 03:54:25;;;;;;;27.57;24.97;;;23.70;99.90;;;;;;4936120;29;20590;-79
2022/08/26 03:56:51;;;;;;;26.80;24.20;;;23.80;99.90;;;;;;4953255;29;20172;-79
2022/08/26 03:59:17;;;;;;;29.50;26.47;;;23.80;99.90;;;;;;4953573;28;20608;-79
2022/08/26 04:01:44;;;;;;;28.77;25.57;;;23.80;99.90;;;;;;4955410;28;21061;-79
2022/08/26 04:04:10;;;;;;;26.00;23.47;;;23.90;99.90;;;;;;4957176;28;20958;-79
2022/08/26 04:06:41;;;;;;;28.90;26.23;;;23.90;99.90;;;;;;4957299;28;20594;-79
2022/08/26 04:09:10;;;;;;;26.57;23.17;;;23.90;99.90;;;;;;4957115;28;21145;-79
2022/08/26 04:11:38;;;;;;;25.40;22.80;;;23.90;99.90;;;;;;4939975;29;20653;-79
2022/08/26 04:14:08;;;;;;;23.60;21.20;;;23.90;99.90;;;;;;4940055;29;20582;-79
2022/08/26 04:16:34;;;;;;;23.47;21.07;;;23.90;99.90;;;;;;4956979;28;20655;-79
2022/08/26 04:19:00;;;;;;;26.20;23.83;;;23.90;99.90;;;;;;4956849;28;20599;-79
2022/08/26 04:21:27;;;;;;;25.77;22.70;;;23.90;99.90;;;;;;4956448;28;20631;-79
2022/08/26 04:23:53;;;;;;;22.93;20.90;;;23.90;99.90;;;;;;4956926;28;20596;-79
2022/08/26 04:26:20;;;;;;;24.23;21.80;;;23.90;99.90;;;;;;4957235;28;20659;-79
2022/08/26 04:28:48;;;;;;;22.33;20.13;;;23.90;99.90;;;;;;4956761;28;20608;-79
2022/08/26 04:31:16;;;;;;;23.63;20.80;;;24.00;99.90;;;;;;4956649;28;20603;-78
2022/08/26 04:33:44;;;;;;;23.77;21.07;;;23.90;99.90;;;;;;4939763;29;21177;-79
2022/08/26 04:36:10;;;;;;;22.00;20.00;;;24.00;99.90;;;;;;4939589;29;21015;-79
2022/08/26 04:38:36;;;;;;;22.10;20.13;;;24.00;99.90;;;;;;4939794;29;20969;-79
2022/08/26 04:41:04;;;;;;;21.40;19.40;;;23.90;99.90;;;;;;4956927;29;20628;-78
2022/08/26 04:43:30;;;;;;;18.70;16.90;;;24.00;99.90;;;;;;4939864;28;20671;-78
2022/08/26 04:46:01;;;;;;;19.37;17.63;;;24.00;99.90;;;;;;4957042;28;20664;-78
2022/08/26 04:48:29;;;;;;;18.00;16.17;;;23.90;99.90;;;;;;4956545;28;20947;-79
2022/08/26 04:50:55;;;;;;;18.20;16.60;;;24.00;99.90;;;;;;4956432;28;20610;-80
2022/08/26 04:53:21;;;;;;;18.07;16.40;;;24.00;99.90;;;;;;4956471;28;20674;-79
2022/08/26 04:55:48;;;;;;;17.83;16.17;;;24.00;99.90;;;;;;4956493;29;20568;-78
2022/08/26 04:58:16;;;;;;;16.40;14.90;;;24.10;99.90;;;;;;4956310;28;20567;-79
2022/08/26 05:00:52;;;;;;;17.10;15.40;;;24.10;99.90;;;;;;4955564;28;21030;-79
2022/08/26 05:03:19;;;;;;;15.30;13.80;;;24.10;99.90;;;;;;4958054;28;20567;-80
2022/08/26 05:05:48;;;;;;;15.83;14.37;;;24.10;99.90;;;;;;4940326;29;20647;-79
2022/08/26 05:08:15;;;;;;;14.03;12.77;;;24.10;99.90;;;;;;4939573;28;20946;-79
2022/08/26 05:10:44;;;;;;;15.57;14.20;;;24.10;99.90;;;;;;4955806;28;20559;-77
2022/08/26 05:13:11;;;;;;;17.70;15.63;;;24.20;99.90;;;;;;4954745;28;20591;-79
2022/08/26 05:15:37;;;;;;;16.10;14.50;;;24.20;99.90;;;;;;4956013;29;20941;-79
2022/08/26 05:18:04;;;;;;;17.20;12.80;;;24.20;99.90;;;;;;4955964;28;20596;-79
2022/08/26 05:20:33;;;;;;;19.07;15.17;;;24.20;99.90;;;;;;4966430;28;20192;-78
2022/08/26 05:22:59;;;;;;;13.63;12.57;;;24.20;99.90;;;;;;4964970;28;20588;-79
2022/08/26 05:25:27;;;;;;;15.30;13.47;;;24.30;99.90;;;;;;4955445;29;20595;-79
2022/08/26 05:27:53;;;;;;;14.90;13.40;;;24.30;99.90;;;;;;4922158;29;20655;-79
2022/08/26 05:30:19;;;;;;;12.40;10.97;;;24.30;99.90;;;;;;4960204;28;20618;-79
2022/08/26 05:32:48;;;;;;;13.93;11.40;;;24.30;99.90;;;;;;4948335;28;20595;-79
2022/08/26 05:35:14;;;;;;;14.50;13.07;;;24.40;99.90;;;;;;4938343;29;20592;-80
2022/08/26 05:37:41;;;;;;;13.53;12.20;;;24.40;99.90;;;;;;4955433;28;20647;-80
2022/08/26 05:40:07;;;;;;;13.17;11.73;;;24.40;99.90;;;;;;4937246;29;20619;-78
2022/08/26 05:42:33;;;;;;;12.60;11.40;;;24.50;99.90;;;;;;4954235;29;20623;-79
2022/08/26 05:44:59;;;;;;;12.83;11.53;;;24.40;99.90;;;;;;4951002;29;20596;-80
2022/08/26 05:47:25;;;;;;;14.10;10.97;;;24.50;99.90;;;;;;4952041;28;20255;-76
2022/08/26 05:49:51;;;;;;;11.43;10.23;;;24.50;99.90;;;;;;4936802;29;20216;-79
2022/08/26 05:52:17;;;;;;;10.23;9.23;;;24.50;99.90;;;;;;4917434;29;20605;-78
2022/08/26 05:54:43;;;;;;;12.17;10.93;;;24.50;99.90;;;;;;4935156;29;21023;-78
2022/08/26 05:57:10;;;;;;;10.20;9.20;;;24.60;99.90;;;;;;4937098;29;20596;-79
2022/08/26 05:59:37;;;;;;;11.77;10.67;;;24.60;99.90;;;;;;4920735;29;20783;-77
2022/08/26 06:02:04;;;;;;;11.23;9.33;;;24.60;99.90;;;;;;4954492;29;20719;-78
2022/08/26 06:04:30;;;;;;;9.97;9.03;;;24.70;99.90;;;;;;4936809;29;20626;-78
2022/08/26 06:06:57;;;;;;;12.10;9.63;;;24.70;99.90;;;;;;4935202;29;20632;-80
2022/08/26 06:09:24;;;;;;;9.20;8.30;;;24.70;99.90;;;;;;4936699;29;20690;-80
2022/08/26 06:11:50;;;;;;;16.60;9.07;;;24.70;99.90;;;;;;4920418;29;20632;-79
2022/08/26 06:14:16;;;;;;;12.67;8.83;;;24.70;99.90;;;;;;4958011;28;20587;-79
2022/08/26 06:16:43;;;;;;;9.60;7.07;;;24.80;99.90;;;;;;4955136;28;20607;-78
2022/08/26 06:19:10;;;;;;;9.20;7.40;;;24.80;99.90;;;;;;4936647;29;20637;-78
2022/08/26 06:21:38;;;;;;;9.90;8.07;;;24.80;99.90;;;;;;4953268;28;20642;-79
2022/08/26 06:26:57;;;;;;;10.63;8.27;;;24.90;99.90;;;;;;4953858;29;20594;-80
2022/08/26 06:29:24;;;;;;;8.63;7.20;;;25.00;99.90;;;;;;4953785;28;20768;-78
2022/08/26 06:31:52;;;;;;;10.50;7.83;;;25.00;99.90;;;;;;4954232;28;20962;-77
2022/08/26 06:34:18;;;;;;;7.43;6.73;;;25.00;99.90;;;;;;4969091;28;20580;-78
2022/08/26 06:36:44;;;;;;;8.70;6.60;;;25.10;99.90;;;;;;4921157;29;20587;-77
2022/08/26 06:39:11;;;;;;;7.97;7.13;;;25.10;99.90;;;;;;4936850;28;20596;-77
2022/08/26 06:41:38;;;;;;;7.90;5.80;;;25.10;99.90;;;;;;4954060;28;20976;-78
2022/08/26 06:44:06;;;;;;;12.93;7.40;;;25.20;99.90;;;;;;4954128;28;20582;-78
2022/08/26 06:46:32;;;;;;;9.73;6.00;;;25.20;99.90;;;;;;4954065;29;20974;-78
2022/08/26 06:48:58;;;;;;;8.40;5.97;;;25.20;99.90;;;;;;4936744;29;20666;-77
2022/08/26 06:51:27;;;;;;;9.10;6.33;;;25.20;99.90;;;;;;4958791;29;20584;-78
2022/08/26 06:53:55;;;;;;;6.93;6.23;;;25.30;99.90;;;;;;4954132;29;20586;-78
2022/08/26 06:56:23;;;;;;;7.00;6.40;;;25.30;99.90;;;;;;4954080;28;20582;-80
2022/08/26 06:58:50;;;;;;;8.80;5.50;;;25.30;99.90;;;;;;4951807;28;20611;-81
2022/08/26 07:01:32;;;;;;;6.70;5.70;;;25.30;99.90;;;;;;4957042;28;20729;-79
2022/08/26 07:04:02;;;;;;;6.70;5.63;;;25.30;99.90;;;;;;4953856;28;21228;-79
2022/08/26 07:06:40;;;;;;;8.03;6.07;;;25.40;99.90;;;;;;4954035;28;20604;-79
2022/08/26 07:09:07;;;;;;;8.77;5.90;;;25.40;99.90;;;;;;4944387;28;20631;-79
2022/08/26 07:11:35;;;;;;;6.23;5.57;;;25.50;99.90;;;;;;4927000;28;20591;-79
2022/08/26 07:14:02;;;;;;;9.87;7.10;;;25.50;99.90;;;;;;4963864;28;20580;-79
2022/08/26 07:16:28;;;;;;;7.40;5.70;;;25.50;99.90;;;;;;4929583;28;20603;-78
2022/08/26 07:18:54;;;;;;;8.23;6.70;;;25.50;99.90;;;;;;4963123;28;20702;-78
2022/08/26 07:21:21;;;;;;;10.73;6.43;;;25.50;99.90;;;;;;4967016;28;20634;-77
2022/08/26 07:23:47;;;;;;;8.43;5.90;;;25.50;99.90;;;;;;4972612;28;20567;-78
2022/08/26 07:26:26;;;;;;;6.90;5.90;;;25.50;99.90;;;;;;4943782;28;20614;-78
2022/08/26 07:28:55;;;;;;;7.27;5.67;;;25.50;99.90;;;;;;4931936;28;20609;-78
2022/08/26 07:31:25;;;;;;;10.70;6.93;;;25.60;99.90;;;;;;4928353;29;20667;-78
2022/08/26 07:33:52;;;;;;;8.80;7.70;;;25.60;99.90;;;;;;4932347;28;20634;-77
2022/08/26 07:36:19;;;;;;;11.27;6.60;;;25.60;99.90;;;;;;4963418;28;20595;-78
2022/08/26 07:38:47;;;;;;;10.30;5.70;;;25.70;99.90;;;;;;4928994;28;20614;-81
2022/08/26 07:41:15;;;;;;;6.17;5.30;;;25.70;99.90;;;;;;4948092;28;21248;-75
2022/08/26 07:43:41;;;;;;;9.50;5.17;;;25.70;99.90;;;;;;4939482;28;20574;-74
2022/08/26 07:46:07;;;;;;;12.63;5.47;;;25.70;99.90;;;;;;4972814;28;20563;-74
2022/08/26 07:48:34;;;;;;;6.00;5.50;;;25.70;99.90;;;;;;4972199;28;21235;-74
2022/08/26 07:51:00;;;;;;;8.03;7.23;;;25.70;99.90;;;;;;4971328;28;20623;-73
2022/08/26 07:53:26;;;;;;;7.47;6.40;;;25.70;99.90;;;;;;4956466;28;20567;-74
2022/08/26 07:55:54;;;;;;;7.37;6.47;;;25.70;99.90;;;;;;4956242;28;20579;-75
2022/08/26 07:58:20;;;;;;;6.37;5.70;;;25.60;99.90;;;;;;4957114;28;20546;-75
2022/08/26 08:00:46;;;;;;;7.37;5.60;;;25.60;99.90;;;;;;4960754;28;20627;-74
2022/08/26 08:03:13;;;;;;;6.77;5.37;;;25.60;99.90;;;;;;4972802;28;20171;-73
2022/08/26 08:05:39;;;;;;;7.20;6.50;;;25.50;99.90;;;;;;4973764;28;20571;-74
2022/08/26 08:08:08;;;;;;;6.83;5.03;;;25.60;99.90;;;;;;4955070;28;20602;-74
2022/08/26 08:10:35;;;;;;;4.83;4.33;;;25.50;99.90;;;;;;4972239;28;20233;-73
2022/08/26 08:13:02;;;;;;;6.10;5.27;;;25.50;99.90;;;;;;4955084;28;20571;-73
2022/08/26 08:15:31;;;;;;;12.10;6.30;;;25.50;99.90;;;;;;4972645;28;21109;-73
2022/08/26 08:17:58;;;;;;;5.90;5.30;;;25.60;99.90;;;;;;4972563;28;20567;-74
2022/08/26 08:20:24;;;;;;;9.10;5.70;;;25.50;99.90;;;;;;4972301;28;20599;-74
2022/08/26 08:22:51;;;;;;;6.40;4.70;;;25.50;99.90;;;;;;4955350;28;20626;-73
2022/08/26 08:25:18;;;;;;;8.10;5.43;;;25.50;99.90;;;;;;4972389;28;20568;-74
2022/08/26 08:27:44;;;;;;;7.70;6.90;;;25.50;99.90;;;;;;4972560;28;20599;-74
2022/08/26 08:30:12;;;;;;;8.77;7.70;;;25.50;99.90;;;;;;4957937;28;21236;-74
2022/08/26 08:32:38;;;;;;;8.43;6.87;;;25.50;99.90;;;;;;4935833;29;20680;-74
2022/08/26 08:35:07;;;;;;;8.30;7.40;;;25.40;99.90;;;;;;4935130;29;21026;-73
2022/08/26 08:37:33;;;;;;;8.00;7.20;;;25.40;99.90;;;;;;4952813;29;20586;-73
2022/08/26 08:39:59;;;;;;;8.70;7.70;;;25.40;99.90;;;;;;4945963;28;20692;-73
2022/08/26 08:42:56;;;;;;;8.83;7.63;;;25.40;99.90;;;;;;4944686;29;20629;-73
2022/08/26 08:45:35;;;;;;;9.80;8.80;;;25.40;99.90;;;;;;4932808;29;20177;-73
2022/08/26 08:48:10;;;;;;;10.70;8.60;;;25.50;99.90;;;;;;4949368;28;20926;-74
2022/08/26 08:50:43;;;;;;;10.73;8.17;;;25.50;99.90;;;;;;4931424;28;21219;-73
2022/08/26 08:53:17;;;;;;;8.70;7.90;;;25.50;99.90;;;;;;4938301;29;20655;-73
2022/08/26 08:55:56;;;;;;;9.60;8.60;;;25.50;99.90;;;;;;4955743;28;20671;-73
2022/08/26 08:58:33;;;;;;;8.67;7.83;;;25.50;99.90;;;;;;4933013;28;20591;-74
2022/08/26 09:01:03;;;;;;;7.53;6.50;;;25.50;99.90;;;;;;4907205;29;20622;-73
2022/08/26 09:03:48;;;;;;;7.27;6.67;;;25.50;99.90;;;;;;4956076;29;20573;-75
2022/08/26 09:06:17;;;;;;;7.60;6.70;;;25.50;99.90;;;;;;4956410;28;20659;-72
2022/08/26 09:08:49;;;;;;;8.00;6.90;;;25.50;99.90;;;;;;4956110;28;20960;-73
2022/08/26 09:11:17;;;;;;;7.53;6.60;;;25.50;99.90;;;;;;4956359;28;20579;-73
2022/08/26 09:13:50;;;;;;;7.53;6.40;;;25.40;99.90;;;;;;4939362;29;20572;-73
2022/08/26 09:16:31;;;;;;;8.80;7.30;;;25.30;99.90;;;;;;4938866;29;20572;-73
2022/08/26 09:19:15;;;;;;;8.50;6.70;;;25.30;99.90;;;;;;4955908;28;20587;-73
2022/08/26 09:21:41;;;;;;;6.90;6.30;;;25.40;99.90;;;;;;4955890;29;20611;-74
2022/08/26 09:24:07;;;;;;;10.30;6.30;;;25.30;99.90;;;;;;4954727;29;21167;-74
2022/08/26 09:26:39;;;;;;;8.90;6.37;;;25.30;99.90;;;;;;4955688;29;20200;-73
2022/08/26 09:29:17;;;;;;;9.47;6.60;;;25.40;99.90;;;;;;4938587;29;20603;-73
2022/08/26 09:31:44;;;;;;;12.27;5.70;;;25.30;99.90;;;;;;4955575;28;20576;-73
2022/08/26 09:34:22;;;;;;;6.63;5.20;;;25.40;99.90;;;;;;4922410;29;21096;-73
2022/08/26 09:36:50;;;;;;;7.10;6.30;;;25.40;99.90;;;;;;4955697;29;20728;-73
2022/08/26 09:39:27;;;;;;;6.30;5.80;;;25.50;99.90;;;;;;4955271;28;20596;-73
2022/08/26 09:42:05;;;;;;;6.90;6.27;;;25.50;99.90;;;;;;4955122;28;20678;-73
2022/08/26 09:44:32;;;;;;;8.50;6.67;;;25.50;99.90;;;;;;4938330;29;20568;-73
2022/08/26 09:47:07;;;;;;;5.87;5.37;;;25.60;99.90;;;;;;4956261;28;20595;-73
2022/08/26 09:49:37;;;;;;;6.83;6.23;;;25.70;99.90;;;;;;4955242;28;20993;-73
2022/08/26 09:52:14;;;;;;;8.47;5.70;;;25.70;99.90;;;;;;4955540;28;20918;-73
2022/08/26 09:54:42;;;;;;;8.27;5.57;;;25.80;99.90;;;;;;4938872;29;20945;-74
2022/08/26 09:57:23;;;;;;;6.03;5.40;;;25.90;99.90;;;;;;4958813;29;20560;-74
2022/08/26 09:59:49;;;;;;;7.37;5.77;;;25.90;99.90;;;;;;4975100;28;20595;-74
2022/08/26 10:02:20;;;;;;;5.87;5.27;;;26.00;99.90;;;;;;4971044;29;20615;-74
2022/08/26 10:04:53;;;;;;;6.70;5.77;;;26.00;99.90;;;;;;4955394;28;21129;-74
2022/08/26 10:07:37;;;;;;;7.93;4.73;;;26.00;99.90;;;;;;4937988;29;20583;-74
2022/08/26 10:10:08;;;;;;;5.27;4.80;;;26.10;99.90;;;;;;4937701;29;20687;-74
2022/08/26 10:12:41;;;;;;;5.67;4.20;;;26.10;99.90;;;;;;4938005;29;20568;-74
2022/08/26 10:15:10;;;;;;;6.70;4.93;;;26.10;99.90;;;;;;4954857;29;20599;-74
2022/08/26 10:17:40;;;;;;;8.80;4.93;;;26.20;99.90;;;;;;4921837;29;21201;-73
2022/08/26 10:20:12;;;;;;;4.53;3.73;;;26.20;99.90;;;;;;4954488;28;20655;-73
2022/08/26 10:22:42;;;;;;;3.93;3.60;;;26.30;99.90;;;;;;4937421;29;20628;-73
2022/08/26 10:25:13;;;;;;;7.10;3.70;;;26.30;99.90;;;;;;4937324;29;20954;-73
2022/08/26 10:27:59;;;;;;;7.40;3.40;;;26.30;99.90;;;;;;4954912;28;21122;-73
2022/08/26 10:30:32;;;;;;;4.60;2.70;;;26.20;99.90;;;;;;4937333;29;20611;-74
2022/08/26 10:33:07;;;;;;;4.50;3.37;;;26.30;99.90;;;;;;4937570;29;20576;-74
2022/08/26 10:35:35;;;;;;;5.10;3.13;;;26.30;99.90;;;;;;4937455;29;20627;-74
2022/08/26 10:38:10;;;;;;;5.87;3.40;;;26.30;99.90;;;;;;4954640;29;20576;-73
2022/08/26 10:40:38;;;;;;;4.03;3.57;;;26.30;99.90;;;;;;4936930;29;21022;-73
2022/08/26 10:43:09;;;;;;;6.70;3.73;;;26.40;99.90;;;;;;4954352;29;21338;-74
2022/08/26 10:45:46;;;;;;;3.73;2.70;;;26.40;99.90;;;;;;4954349;29;20606;-74
2022/08/26 10:48:18;;;;;;;4.80;2.90;;;26.50;99.90;;;;;;4954475;28;20572;-74
2022/08/26 10:50:46;;;;;;;6.10;2.40;;;26.60;99.90;;;;;;4954075;29;20935;-74
2022/08/26 10:53:35;;;;;;;5.13;2.63;;;26.60;99.90;;;;;;4953949;28;20560;-74
2022/08/26 10:56:35;;;;;;;3.93;2.80;;;26.60;99.90;;;;;;4937052;29;20572;-73
2022/08/26 10:59:31;;;;;;;4.40;2.40;;;26.70;99.90;;;;;;4954088;28;20701;-73
2022/08/26 11:02:23;;;;;;;4.77;2.70;;;26.70;99.90;;;;;;4936588;29;21061;-73
2022/08/26 11:05:00;;;;;;;3.07;2.17;;;26.90;99.90;;;;;;4954074;29;20568;-73
2022/08/26 11:07:45;;;;;;;5.43;2.10;;;27.00;99.90;;;;;;4936898;29;20644;-74
2022/08/26 11:10:16;;;;;;;4.93;2.40;;;27.00;99.90;;;;;;4953674;28;20706;-74
2022/08/26 11:12:44;;;;;;;4.03;2.30;;;27.20;99.90;;;;;;4953862;29;20919;-74
2022/08/26 11:15:22;;;;;;;5.20;2.70;;;27.30;99.90;;;;;;4954032;29;20575;-74
2022/08/26 11:17:50;;;;;;;4.70;2.37;;;27.40;99.90;;;;;;4953923;29;20564;-73
2022/08/26 11:20:22;;;;;;;4.90;2.30;;;27.60;99.90;;;;;;4953461;28;20607;-73
2022/08/26 11:22:49;;;;;;;6.03;2.40;;;27.70;99.90;;;;;;4935816;29;20809;-73
2022/08/26 11:25:17;;;;;;;4.27;1.87;;;27.90;99.90;;;;;;4953906;29;20571;-74
2022/08/26 11:27:51;;;;;;;3.83;1.70;;;28.00;99.90;;;;;;4936445;29;20572;-74
2022/08/26 11:30:18;;;;;;;2.90;1.97;;;28.20;99.90;;;;;;4953407;28;20603;-73
2022/08/26 11:32:56;;;;;;;5.93;2.23;;;28.30;99.90;;;;;;4936404;29;20576;-74
2022/08/26 11:35:24;;;;;;;5.80;2.13;;;28.40;99.90;;;;;;4953630;28;20595;-74
2022/08/26 11:37:54;;;;;;;2.70;1.73;;;28.60;99.90;;;;;;4953577;28;20576;-74
2022/08/26 11:40:42;;;;;;;5.00;2.00;;;28.70;99.90;;;;;;4953037;28;20611;-74
2022/08/26 11:43:17;;;;;;;7.00;2.20;;;28.80;99.90;;;;;;4936170;29;20588;-75
2022/08/26 11:45:58;;;;;;;3.20;2.10;;;28.90;99.90;;;;;;4953291;29;20576;-74
2022/08/26 11:49:11;;;;;;;3.33;2.20;;;29.00;99.90;;;;;;4953333;28;21140;-73
2022/08/26 11:52:36;;;;;;;2.67;1.57;;;29.10;99.90;;;;;;4886203;29;20613;-73
2022/08/26 11:55:09;;;;;;;4.23;1.70;;;29.20;99.90;;;;;;4917088;29;20675;-73
2022/08/26 11:57:43;;;;;;;3.23;1.43;;;29.10;99.40;;;;;;4917537;29;20260;-73
2022/08/26 12:00:16;;;;;;;4.30;2.10;;;29.10;99.50;;;;;;4933814;29;20635;-73
2022/08/26 12:02:42;;;;;;;2.77;2.20;;;29.20;99.50;;;;;;4933985;29;21072;-74
2022/08/26 12:05:08;;;;;;;5.27;2.20;;;29.30;99.00;;;;;;4933977;29;20634;-73
2022/08/26 12:07:34;;;;;;;3.00;1.63;;;29.30;98.80;;;;;;4934083;29;20255;-74
2022/08/26 12:10:04;;;;;;;4.07;1.83;;;29.30;98.70;;;;;;4933766;29;20704;-75
2022/08/26 12:12:37;;;;;;;4.53;2.10;;;29.30;98.40;;;;;;4933961;29;20576;-75
2022/08/26 12:15:18;;;;;;;3.77;2.20;;;29.30;98.10;;;;;;4917153;29;20917;-75
2022/08/26 12:17:45;;;;;;;6.83;2.17;;;29.20;98.00;;;;;;4934024;29;20680;-76
2022/08/26 12:20:44;;;;;;;6.17;2.23;;;29.10;97.80;;;;;;4934714;29;20644;-80
2022/08/26 12:23:25;;;;;;;4.43;2.07;;;28.90;97.70;;;;;;4936973;29;21029;-80
2022/08/26 12:26:01;;;;;;;4.17;1.60;;;28.70;97.70;;;;;;4937880;29;20576;-81
2022/08/26 12:28:29;;;;;;;5.20;1.57;;;28.50;97.70;;;;;;4937512;29;20573;-81
2022/08/26 12:31:04;;;;;;;3.20;1.40;;;28.40;97.90;;;;;;4937431;29;20569;-81
2022/08/26 12:33:32;;;;;;;4.77;1.40;;;28.30;98.30;;;;;;4937528;29;20576;-81
2022/08/26 12:36:00;;;;;;;5.53;1.27;;;28.20;98.60;;;;;;4937550;29;20623;-80
2022/08/26 12:38:27;;;;;;;5.43;1.60;;;28.10;98.70;;;;;;4937664;29;20620;-81
2022/08/26 12:40:54;;;;;;;3.23;1.87;;;28.10;98.80;;;;;;4920203;29;20569;-81
2022/08/26 12:43:44;;;;;;;4.80;1.00;;;28.00;98.80;;;;;;4937554;29;21161;-81
2022/08/26 12:46:16;;;;;;;4.03;1.13;;;27.90;98.90;;;;;;4920391;29;20600;-82
2022/08/26 12:48:47;;;;;;;7.83;1.67;;;27.90;98.90;;;;;;4938231;29;20624;-81
2022/08/26 12:51:40;;;;;;;6.07;1.50;;;27.90;98.90;;;;;;4937105;29;21396;-81
2022/08/26 12:54:12;;;;;;;4.23;1.30;;;27.80;98.90;;;;;;4938000;29;20580;-81
2022/08/26 12:56:38;;;;;;;4.90;3.13;;;27.90;99.00;;;;;;4921646;29;20588;-81
2022/08/26 12:59:06;;;;;;;7.23;3.40;;;27.90;99.10;;;;;;4940986;29;20608;-81